Time;durP1;ratioP1;P1;durP2;ratioP2;P2;SDS_P1;SDS_P2;PMS_P1;PMS_P2;Temp;Humidity;BMP_temperature;BMP_pressure;BME280_temperature;BME280_humidity;BME280_pressure;Samples;Min_cycle;Max_cycle;Signal;HPM_P1;HPM_P2
2021/05/03 00:00:34;;;;;;;7.43;4.83;;;3.70;92.10;;;;;;5036340;28;20037;-71
2021/05/03 00:03:00;;;;;;;7.10;4.70;;;3.60;92.00;;;;;;5038018;28;20120;-70
2021/05/03 00:05:27;;;;;;;8.20;5.33;;;3.50;92.00;;;;;;5048380;28;20160;-72
2021/05/03 00:07:53;;;;;;;9.00;5.17;;;3.50;92.20;;;;;;5039764;28;20041;-72
2021/05/03 01:13:07;;;;;;;9.23;5.07;;;3.30;92.90;;;;;;5015917;26;20065;-70
2021/05/03 01:15:34;;;;;;;10.23;5.40;;;3.40;92.80;;;;;;4992529;28;20055;-70
2021/05/03 01:18:02;;;;;;;8.93;5.37;;;3.40;92.70;;;;;;4996079;28;20547;-70
2021/05/03 01:20:31;;;;;;;10.00;6.10;;;3.50;92.90;;;;;;5012853;28;20129;-71
2021/05/03 01:23:01;;;;;;;8.73;6.07;;;3.60;92.90;;;;;;4979395;28;20478;-71
2021/05/03 01:25:32;;;;;;;7.60;4.67;;;3.60;92.90;;;;;;5007644;28;20050;-71
2021/05/03 01:28:01;;;;;;;8.60;5.83;;;3.80;93.10;;;;;;4992257;28;20042;-71
2021/05/03 01:30:30;;;;;;;12.37;6.00;;;3.70;93.00;;;;;;5011487;28;20100;-70
2021/05/03 01:32:56;;;;;;;9.97;5.90;;;3.70;93.10;;;;;;4991260;28;20403;-70
2021/05/03 01:35:22;;;;;;;8.30;6.23;;;3.70;93.40;;;;;;5015550;28;20401;-70
2021/05/03 01:37:57;;;;;;;11.43;5.80;;;3.80;93.20;;;;;;5009479;28;20038;-73
2021/05/03 01:40:30;;;;;;;10.90;6.07;;;3.80;93.30;;;;;;4987272;28;20042;-70
2021/05/03 01:43:00;;;;;;;11.00;6.00;;;3.80;93.30;;;;;;4997136;28;20088;-70
2021/05/03 01:45:27;;;;;;;8.47;5.87;;;3.80;93.40;;;;;;5026591;28;20048;-70
2021/05/03 01:47:56;;;;;;;10.80;6.23;;;3.90;93.50;;;;;;4983871;28;20049;-70
2021/05/03 01:50:23;;;;;;;9.37;6.30;;;3.90;93.70;;;;;;4976582;28;20428;-70
2021/05/03 01:52:50;;;;;;;9.87;6.20;;;4.10;93.80;;;;;;5012146;28;20116;-70
2021/05/03 01:55:20;;;;;;;9.67;6.10;;;4.10;94.00;;;;;;4994659;28;20040;-70
2021/05/03 01:57:46;;;;;;;11.07;6.65;;;4.20;94.10;;;;;;5004976;28;20037;-70
2021/05/03 02:00:13;;;;;;;9.47;5.87;;;4.20;94.10;;;;;;5018059;28;20087;-71
2021/05/03 02:02:43;;;;;;;9.67;6.43;;;4.30;94.20;;;;;;4988800;28;20030;-70
2021/05/03 02:05:15;;;;;;;10.20;5.68;;;4.30;94.60;;;;;;4995865;28;20046;-71
2021/05/03 02:07:41;;;;;;;9.47;6.07;;;4.40;94.40;;;;;;4991131;28;20041;-71
2021/05/03 02:10:07;;;;;;;9.03;5.80;;;4.50;94.60;;;;;;5008673;28;20046;-71
2021/05/03 02:12:37;;;;;;;8.90;5.97;;;4.50;94.60;;;;;;4987555;28;20536;-71
2021/05/03 02:15:06;;;;;;;9.63;6.00;;;4.60;94.70;;;;;;5002064;28;20042;-71
2021/05/03 02:17:33;;;;;;;7.53;5.20;;;4.60;94.70;;;;;;5019511;28;20105;-71
2021/05/03 02:19:59;;;;;;;7.43;5.27;;;4.70;94.60;;;;;;5011950;28;20045;-71
2021/05/03 02:22:28;;;;;;;7.50;5.00;;;4.70;94.60;;;;;;5012752;28;20034;-71
2021/05/03 02:24:54;;;;;;;6.70;4.53;;;4.80;95.00;;;;;;4968879;28;20039;-71
2021/05/03 02:27:20;;;;;;;8.40;5.20;;;4.80;94.70;;;;;;5014046;28;20046;-71
2021/05/03 02:29:52;;;;;;;7.70;4.80;;;4.90;94.70;;;;;;4989983;28;20472;-71
2021/05/03 02:32:18;;;;;;;7.27;4.97;;;4.90;94.70;;;;;;4984488;28;20042;-72
2021/05/03 02:34:43;;;;;;;7.07;4.73;;;4.90;94.70;;;;;;5015694;28;20041;-71
2021/05/03 02:37:09;;;;;;;6.60;4.33;;;5.00;94.60;;;;;;5028206;28;20125;-71
2021/05/03 02:39:36;;;;;;;7.00;4.20;;;5.00;94.70;;;;;;5002431;28;20413;-72
2021/05/03 02:42:02;;;;;;;8.03;5.23;;;5.10;95.00;;;;;;5005373;28;20049;-71
2021/05/03 02:44:29;;;;;;;6.17;4.57;;;5.10;94.70;;;;;;5009053;28;20069;-71
2021/05/03 02:46:55;;;;;;;6.97;4.63;;;5.10;94.70;;;;;;5006327;28;20043;-71
2021/05/03 02:49:21;;;;;;;7.30;5.07;;;5.20;94.70;;;;;;4997988;28;20105;-71
2021/05/03 02:51:47;;;;;;;9.47;5.23;;;5.20;94.70;;;;;;4983895;28;20041;-71
2021/05/03 02:54:13;;;;;;;7.53;5.43;;;5.20;94.70;;;;;;5002567;28;20077;-71
2021/05/03 02:56:39;;;;;;;10.50;6.00;;;5.30;94.60;;;;;;4973892;28;20038;-72
2021/05/03 02:59:04;;;;;;;9.53;5.80;;;5.20;94.70;;;;;;4986122;28;20496;-71
2021/05/03 03:01:33;;;;;;;7.50;5.77;;;5.30;94.70;;;;;;4949305;28;20107;-71
2021/05/03 03:03:59;;;;;;;8.80;5.37;;;5.30;94.80;;;;;;5019109;28;20041;-71
2021/05/03 03:06:24;;;;;;;9.10;6.47;;;5.30;94.80;;;;;;5019757;28;20049;-71
2021/05/03 03:08:50;;;;;;;8.57;5.40;;;5.30;94.80;;;;;;5001379;28;20037;-71
2021/05/03 03:11:17;;;;;;;8.37;5.57;;;5.30;94.80;;;;;;5025435;28;20042;-71
2021/05/03 03:13:42;;;;;;;10.17;5.40;;;5.30;94.80;;;;;;4977210;28;20108;-71
2021/05/03 03:16:10;;;;;;;7.83;5.23;;;5.30;94.90;;;;;;5022795;28;20042;-71
2021/05/03 03:18:37;;;;;;;8.63;5.37;;;5.30;94.90;;;;;;5021679;28;20045;-71
2021/05/03 03:21:03;;;;;;;8.17;5.43;;;5.30;94.90;;;;;;4992838;28;20386;-70
2021/05/03 03:23:29;;;;;;;8.40;5.53;;;5.30;95.00;;;;;;5009968;28;20104;-71
2021/05/03 03:25:55;;;;;;;7.77;5.60;;;5.40;95.00;;;;;;5009750;28;20480;-70
2021/05/03 03:28:21;;;;;;;10.37;5.90;;;5.20;95.00;;;;;;4976663;28;20039;-70
2021/05/03 03:30:50;;;;;;;8.60;5.70;;;5.30;95.00;;;;;;5019660;28;20045;-71
2021/05/03 03:33:16;;;;;;;9.37;6.50;;;5.30;95.10;;;;;;4969774;28;20046;-71
2021/05/03 03:35:42;;;;;;;9.70;6.20;;;5.30;95.20;;;;;;5003998;28;20034;-70
2021/05/03 03:38:07;;;;;;;10.10;7.27;;;5.30;95.20;;;;;;4997091;28;20701;-71
2021/05/03 03:40:33;;;;;;;9.87;7.53;;;5.30;95.20;;;;;;4982542;28;20407;-71
2021/05/03 03:42:59;;;;;;;12.50;7.90;;;5.20;95.20;;;;;;5010323;28;20029;-71
2021/05/03 03:45:25;;;;;;;13.03;8.40;;;5.20;95.20;;;;;;5006124;28;20062;-71
2021/05/03 03:47:51;;;;;;;16.07;9.73;;;5.20;95.30;;;;;;5005951;28;20044;-71
2021/05/03 03:50:17;;;;;;;13.60;9.40;;;5.30;95.30;;;;;;4979872;28;20044;-71
2021/05/03 03:52:42;;;;;;;12.80;9.30;;;5.30;95.30;;;;;;4986392;28;20481;-71
2021/05/03 03:55:09;;;;;;;15.50;10.77;;;5.30;95.40;;;;;;5000742;28;20103;-71
2021/05/03 03:57:35;;;;;;;16.90;11.10;;;5.30;95.30;;;;;;5002748;28;20103;-71
2021/05/03 04:00:01;;;;;;;17.43;12.00;;;5.20;95.40;;;;;;5010351;28;20059;-71
2021/05/03 04:02:31;;;;;;;18.57;12.67;;;5.30;95.50;;;;;;4991415;28;20038;-71
2021/05/03 04:07:41;;;;;;;18.63;13.03;;;5.30;95.50;;;;;;5000552;28;20120;-72
2021/05/03 04:23:44;;;;;;;24.23;16.10;;;5.50;95.70;;;;;;4986985;28;20125;-70
2021/05/03 04:26:07;;;;;;;23.30;16.23;;;5.50;95.70;;;;;;5017994;28;20124;-70
2021/05/03 04:28:33;;;;;;;27.67;18.40;;;5.50;95.70;;;;;;5001640;28;20176;-71
2021/05/03 04:30:58;;;;;;;23.23;17.57;;;5.50;95.70;;;;;;4995142;28;20131;-72
2021/05/03 04:33:24;;;;;;;19.87;15.53;;;5.60;95.70;;;;;;5008567;28;20077;-71
2021/05/03 04:35:50;;;;;;;23.97;17.43;;;5.60;95.70;;;;;;5006581;28;20033;-71
2021/05/03 04:38:16;;;;;;;27.90;17.40;;;5.60;95.70;;;;;;5009051;28;20568;-71
2021/05/03 04:40:45;;;;;;;22.10;16.80;;;5.60;96.00;;;;;;5008115;28;20034;-72
2021/05/03 04:43:12;;;;;;;26.50;16.20;;;5.60;95.60;;;;;;5011105;28;20059;-70
2021/05/03 04:45:38;;;;;;;22.67;16.50;;;5.60;95.80;;;;;;5010515;28;20045;-72
2021/05/03 04:48:04;;;;;;;18.77;14.60;;;5.60;95.60;;;;;;4976304;28;20045;-71
2021/05/03 04:50:30;;;;;;;20.70;15.70;;;5.60;95.50;;;;;;4985049;28;20095;-71
2021/05/03 04:52:56;;;;;;;20.83;16.10;;;5.60;95.50;;;;;;5010730;28;20132;-71
2021/05/03 04:55:22;;;;;;;18.37;15.30;;;5.60;95.60;;;;;;5007535;28;20045;-71
2021/05/03 04:57:47;;;;;;;21.00;16.03;;;5.60;95.50;;;;;;5023608;28;20113;-70
2021/05/03 05:00:17;;;;;;;21.43;17.30;;;5.70;95.40;;;;;;4994617;28;20938;-71
2021/05/03 05:02:43;;;;;;;21.93;15.93;;;5.70;95.50;;;;;;5003104;28;20050;-71
2021/05/03 05:05:12;;;;;;;21.53;15.70;;;5.70;95.50;;;;;;5010313;28;20431;-71
2021/05/03 05:07:38;;;;;;;20.90;15.67;;;5.70;95.50;;;;;;5011315;28;20128;-71
2021/05/03 05:10:08;;;;;;;21.67;14.73;;;5.70;95.50;;;;;;5024893;28;20284;-71
2021/05/03 05:12:34;;;;;;;22.70;16.30;;;5.70;95.50;;;;;;4978164;28;20064;-71
2021/05/03 05:15:00;;;;;;;20.33;16.50;;;5.70;95.40;;;;;;4991947;28;20042;-72
2021/05/03 05:17:26;;;;;;;23.30;17.00;;;5.70;95.40;;;;;;5007985;28;20539;-71
2021/05/03 05:19:53;;;;;;;21.63;15.17;;;5.70;95.40;;;;;;5028905;28;20069;-71
2021/05/03 05:22:19;;;;;;;22.50;17.50;;;5.80;95.40;;;;;;5012475;28;20048;-71
2021/05/03 05:24:45;;;;;;;21.00;16.17;;;5.70;95.40;;;;;;4996378;28;20906;-71
2021/05/03 05:27:11;;;;;;;21.03;15.33;;;5.80;95.40;;;;;;5026884;28;20697;-71
2021/05/03 05:29:38;;;;;;;18.10;13.77;;;5.80;95.30;;;;;;5029118;28;20052;-71
2021/05/03 05:32:04;;;;;;;18.47;14.90;;;5.80;95.20;;;;;;5008880;28;20133;-70
2021/05/03 05:34:30;;;;;;;21.27;15.17;;;5.80;94.90;;;;;;5028993;28;20408;-71
2021/05/03 05:36:56;;;;;;;17.40;14.67;;;5.90;94.90;;;;;;4991531;28;20052;-70
2021/05/03 05:39:22;;;;;;;21.27;15.20;;;5.90;94.80;;;;;;5039239;28;20432;-71
2021/05/03 05:41:48;;;;;;;19.80;15.53;;;5.90;94.80;;;;;;4998883;28;20037;-71
2021/05/03 05:44:14;;;;;;;20.60;16.63;;;5.90;94.70;;;;;;5034787;28;20068;-71
2021/05/03 05:46:40;;;;;;;21.60;15.40;;;5.90;94.70;;;;;;5018931;28;20125;-71
2021/05/03 05:49:07;;;;;;;22.10;17.17;;;5.90;94.70;;;;;;4990168;28;20061;-71
2021/05/03 05:51:33;;;;;;;19.33;15.67;;;5.90;94.60;;;;;;5009331;28;20124;-70
2021/05/03 05:53:59;;;;;;;20.00;16.03;;;6.00;94.60;;;;;;5024774;28;20453;-71
2021/05/03 05:56:25;;;;;;;21.03;16.37;;;6.00;94.60;;;;;;4993252;28;20041;-71
2021/05/03 05:58:51;;;;;;;22.67;17.00;;;6.10;94.50;;;;;;5025175;28;20037;-71
2021/05/03 06:01:17;;;;;;;24.13;18.13;;;6.10;94.50;;;;;;5004207;28;20080;-71
2021/05/03 06:03:42;;;;;;;24.10;17.40;;;6.10;94.50;;;;;;5006394;28;20041;-71
2021/05/03 06:06:08;;;;;;;24.43;18.53;;;6.20;94.50;;;;;;5005375;28;20046;-71
2021/05/03 06:08:35;;;;;;;24.27;17.57;;;6.20;94.50;;;;;;5006014;28;20048;-71
2021/05/03 06:11:01;;;;;;;25.13;19.70;;;6.30;94.40;;;;;;5005656;28;20057;-70
2021/05/03 06:13:27;;;;;;;21.87;17.97;;;6.30;94.30;;;;;;5008147;28;20123;-71
2021/05/03 06:15:54;;;;;;;24.50;18.70;;;6.40;94.10;;;;;;5026847;28;20109;-71
2021/05/03 06:18:20;;;;;;;25.03;18.97;;;6.30;94.00;;;;;;5020723;28;20096;-71
2021/05/03 06:20:47;;;;;;;27.40;18.70;;;6.40;94.10;;;;;;5002088;28;20952;-71
2021/05/03 06:23:13;;;;;;;25.70;20.23;;;6.30;94.10;;;;;;4979412;28;20632;-72
2021/05/03 06:25:40;;;;;;;24.60;19.33;;;6.40;94.20;;;;;;4984682;28;20298;-72
2021/05/03 06:28:08;;;;;;;26.23;20.23;;;6.30;94.30;;;;;;5004391;28;20157;-72
2021/05/03 06:30:34;;;;;;;26.53;21.13;;;6.40;94.20;;;;;;5008042;28;20041;-72
2021/05/03 06:33:01;;;;;;;24.67;21.17;;;6.40;94.30;;;;;;5009649;28;20038;-72
2021/05/03 06:35:30;;;;;;;29.53;22.23;;;6.40;94.20;;;;;;4971064;28;20057;-71
2021/05/03 06:37:56;;;;;;;31.13;22.70;;;6.50;94.20;;;;;;5007988;28;20464;-72
2021/05/03 06:40:22;;;;;;;27.93;21.80;;;6.60;94.20;;;;;;5013089;28;20050;-72
2021/05/03 06:42:48;;;;;;;28.50;21.43;;;6.60;94.10;;;;;;5020372;28;20041;-72
2021/05/03 06:45:19;;;;;;;32.57;22.73;;;6.70;94.10;;;;;;5014195;28;20046;-71
2021/05/03 06:47:46;;;;;;;27.43;22.53;;;6.60;94.00;;;;;;5011078;28;20289;-72
2021/05/03 06:50:13;;;;;;;29.40;22.47;;;6.70;94.00;;;;;;5012403;28;20502;-71
2021/05/03 06:52:44;;;;;;;32.37;21.87;;;6.70;93.90;;;;;;5009381;28;20065;-71
2021/05/03 06:55:11;;;;;;;32.17;23.17;;;6.70;93.80;;;;;;5010310;28;20041;-72
2021/05/03 06:57:37;;;;;;;33.67;24.83;;;6.80;93.80;;;;;;4993660;28;20093;-71
2021/05/03 07:00:05;;;;;;;31.00;24.43;;;6.90;93.90;;;;;;5010292;28;20125;-71
2021/05/03 07:02:31;;;;;;;34.33;23.43;;;7.00;94.00;;;;;;5001054;28;20057;-71
2021/05/03 07:04:58;;;;;;;33.97;24.93;;;7.10;94.00;;;;;;5002582;28;20034;-72
2021/05/03 07:07:23;;;;;;;35.10;26.43;;;7.20;94.00;;;;;;5008603;28;20092;-72
2021/05/03 07:09:49;;;;;;;33.53;26.83;;;7.30;93.90;;;;;;4960848;28;20054;-72
2021/05/03 07:12:21;;;;;;;32.27;24.47;;;7.50;93.90;;;;;;5038906;28;20138;-72
2021/05/03 07:14:48;;;;;;;32.97;24.67;;;7.60;93.50;;;;;;4968223;28;20072;-72
2021/05/03 07:17:14;;;;;;;30.57;23.23;;;7.70;93.30;;;;;;5007259;28;20038;-71
2021/05/03 07:19:40;;;;;;;35.63;27.43;;;7.70;93.00;;;;;;5017641;28;20168;-71
2021/05/03 07:22:08;;;;;;;40.03;29.37;;;7.70;93.00;;;;;;5000216;28;20041;-72
2021/05/03 07:24:35;;;;;;;38.07;27.77;;;7.70;92.90;;;;;;5007560;28;20484;-72
2021/05/03 07:27:02;;;;;;;37.93;29.20;;;7.70;93.10;;;;;;4999543;28;20046;-71
2021/05/03 07:29:28;;;;;;;38.97;28.40;;;7.70;93.10;;;;;;5015275;28;20041;-71
2021/05/03 07:31:54;;;;;;;37.07;30.73;;;7.80;93.20;;;;;;4997734;28;20041;-71
2021/05/03 07:34:20;;;;;;;41.80;31.63;;;7.90;93.10;;;;;;5021319;28;20053;-71
2021/05/03 07:36:45;;;;;;;34.90;25.33;;;8.00;93.00;;;;;;4989651;28;20046;-71
2021/05/03 07:39:12;;;;;;;39.37;30.13;;;8.10;93.00;;;;;;4993373;28;20068;-71
2021/05/03 07:41:40;;;;;;;43.23;31.93;;;8.30;92.90;;;;;;4995367;28;20050;-71
2021/05/03 07:44:07;;;;;;;33.40;25.60;;;8.50;92.80;;;;;;5005392;28;20052;-71
2021/05/03 07:46:34;;;;;;;38.03;30.07;;;8.60;92.40;;;;;;4997061;28;20081;-71
2021/05/03 07:49:00;;;;;;;38.23;30.03;;;8.70;91.90;;;;;;5006717;28;20033;-72
2021/05/03 07:51:27;;;;;;;38.27;30.40;;;8.70;92.00;;;;;;5001837;28;20048;-72
2021/05/03 07:53:54;;;;;;;39.97;30.13;;;8.80;92.00;;;;;;4990820;28;20042;-71
2021/05/03 07:56:24;;;;;;;37.33;30.80;;;8.80;91.90;;;;;;5005571;28;20065;-71
2021/05/03 07:58:50;;;;;;;38.70;30.40;;;8.80;91.80;;;;;;4989241;28;20062;-72
2021/05/03 08:01:16;;;;;;;34.10;24.90;;;8.80;91.80;;;;;;5007341;28;20293;-72
2021/05/03 08:03:43;;;;;;;37.87;29.87;;;8.90;91.50;;;;;;4984591;28;20042;-72
2021/05/03 08:06:14;;;;;;;35.53;29.90;;;8.90;91.30;;;;;;5000870;28;20038;-72
2021/05/03 08:08:48;;;;;;;;;;;8.90;91.60;;;;;;5001302;28;20069;-71
2021/05/03 08:11:16;;;;;;;35.83;26.90;;;8.90;91.60;;;;;;5004712;28;19979;-71
2021/05/03 08:13:44;;;;;;;35.67;26.47;;;9.00;91.70;;;;;;4989743;28;20054;-72
2021/05/03 08:16:13;;;;;;;33.47;27.33;;;9.10;91.70;;;;;;5007656;28;20504;-71
2021/05/03 08:18:40;;;;;;;33.80;26.97;;;9.20;91.40;;;;;;5024878;28;20038;-72
2021/05/03 08:21:08;;;;;;;34.40;28.57;;;9.40;91.30;;;;;;4975726;28;20038;-71
2021/05/03 08:23:34;;;;;;;38.07;29.57;;;9.70;91.10;;;;;;5011037;28;20042;-72
2021/05/03 08:26:01;;;;;;;35.80;26.47;;;9.90;91.10;;;;;;4987157;28;20405;-72
2021/05/03 08:28:30;;;;;;;37.53;27.53;;;10.00;90.50;;;;;;5007811;28;20468;-71
2021/05/03 08:30:56;;;;;;;35.13;28.47;;;10.10;90.20;;;;;;5007074;28;20042;-72
2021/05/03 08:33:22;;;;;;;34.90;26.17;;;10.20;89.70;;;;;;5019238;28;20046;-72
2021/05/03 08:35:48;;;;;;;37.33;30.00;;;10.20;90.00;;;;;;4986360;28;20052;-72
2021/05/03 08:38:17;;;;;;;37.93;29.37;;;10.30;90.40;;;;;;5005574;28;20052;-72
2021/05/03 08:40:43;;;;;;;40.87;32.43;;;10.20;90.10;;;;;;4974741;28;20041;-72
2021/05/03 08:43:09;;;;;;;37.60;31.25;;;10.10;89.90;;;;;;4995595;28;20449;-71
2021/05/03 08:45:37;;;;;;;39.13;33.40;;;10.10;90.10;;;;;;5003534;28;20045;-72
2021/05/03 08:53:13;;;;;;;39.13;31.50;;;10.00;90.60;;;;;;5002785;28;20069;-72
2021/05/03 08:55:39;;;;;;;37.50;30.47;;;9.90;90.70;;;;;;4979485;28;20045;-72
2021/05/03 08:58:05;;;;;;;43.17;33.60;;;9.90;90.20;;;;;;4945541;28;20112;-71
2021/05/03 09:00:31;;;;;;;40.13;31.70;;;9.90;90.80;;;;;;4980168;28;20042;-71
2021/05/03 09:03:00;;;;;;;43.43;35.23;;;10.00;90.40;;;;;;4981133;28;20034;-72
2021/05/03 09:05:26;;;;;;;44.20;34.40;;;10.10;90.40;;;;;;4995952;28;20061;-72
2021/05/03 09:07:53;;;;;;;39.53;32.60;;;10.40;91.20;;;;;;4977936;28;20073;-72
2021/05/03 09:10:21;;;;;;;43.67;35.25;;;10.60;90.00;;;;;;4980205;28;20034;-72
2021/05/03 09:12:48;;;;;;;41.20;34.05;;;10.80;89.20;;;;;;4998667;28;20046;-71
2021/05/03 09:15:24;;;;;;;42.60;30.40;;;11.00;88.70;;;;;;4995712;28;20042;-72
2021/05/03 09:17:51;;;;;;;43.58;30.17;;;11.20;88.30;;;;;;5010679;28;20054;-72
2021/05/03 09:20:25;;;;;;;44.95;35.88;;;11.30;86.80;;;;;;4991257;28;20073;-71
2021/05/03 09:22:58;;;;;;;44.65;34.40;;;11.40;86.80;;;;;;4995772;28;20041;-72
2021/05/03 09:25:38;;;;;;;43.08;34.92;;;11.60;86.60;;;;;;4992103;28;20049;-72
2021/05/03 09:28:07;;;;;;;42.50;31.75;;;11.50;85.20;;;;;;4996981;28;20042;-72
2021/05/03 09:30:43;;;;;;;43.83;35.22;;;11.20;84.70;;;;;;4979029;28;20097;-71
2021/05/03 09:33:16;;;;;;;43.80;35.80;;;10.90;85.80;;;;;;4981605;28;20046;-72
2021/05/03 09:35:51;;;;;;;45.40;38.75;;;10.70;87.90;;;;;;4991024;28;20053;-72
2021/05/03 09:38:28;;;;;;;44.22;35.97;;;10.60;88.10;;;;;;4993040;28;20878;-72
2021/05/03 09:41:09;;;;;;;45.67;35.92;;;10.50;87.60;;;;;;4993236;28;20477;-72
2021/05/03 09:43:35;;;;;;;41.25;32.75;;;10.40;87.50;;;;;;5015259;28;20501;-71
2021/05/03 09:46:22;;;;;;;50.78;41.17;;;10.40;87.70;;;;;;5005337;28;20034;-71
2021/05/03 09:48:49;;;;;;;48.00;38.33;;;10.30;88.90;;;;;;5008477;28;20456;-72
2021/05/03 09:51:43;;;;;;;47.25;38.35;;;10.20;88.60;;;;;;4991392;28;20045;-72
2021/05/03 09:54:09;;;;;;;46.47;37.97;;;10.30;88.30;;;;;;5001940;28;20073;-72
2021/05/03 09:56:51;;;;;;;47.80;39.50;;;10.30;88.40;;;;;;5008049;28;20088;-71
2021/05/03 09:59:36;;;;;;;47.45;39.80;;;10.50;88.60;;;;;;4991781;28;20034;-72
2021/05/03 10:02:02;;;;;;;44.42;38.47;;;10.70;87.90;;;;;;5007989;28;20516;-72
2021/05/03 10:04:32;;;;;;;46.80;37.03;;;10.80;86.50;;;;;;4986851;28;20133;-72
2021/05/03 10:06:58;;;;;;;;;;;10.70;86.60;;;;;;4987165;28;20060;-72
2021/05/03 10:09:25;;;;;;;47.78;37.90;;;10.60;87.20;;;;;;5022423;28;19921;-72
2021/05/03 10:11:52;;;;;;;45.90;38.83;;;10.50;87.40;;;;;;5010397;28;20041;-72
2021/05/03 10:14:19;;;;;;;46.38;36.83;;;10.50;87.00;;;;;;4987365;28;20046;-72
2021/05/03 10:16:47;;;;;;;47.53;38.58;;;10.50;88.20;;;;;;5006784;28;20099;-72
2021/05/03 10:19:23;;;;;;;42.45;37.70;;;10.80;89.40;;;;;;5007083;28;20042;-71
2021/05/03 10:21:49;;;;;;;36.53;30.50;;;11.20;87.00;;;;;;5003813;28;20050;-73
2021/05/03 10:24:19;;;;;;;39.08;31.58;;;11.40;84.30;;;;;;4996982;28;20073;-71
2021/05/03 10:26:51;;;;;;;44.08;33.05;;;11.50;84.00;;;;;;5012526;28;20038;-72
2021/05/03 10:29:27;;;;;;;41.30;36.03;;;11.60;83.60;;;;;;4987643;28;20045;-71
2021/05/03 10:31:59;;;;;;;38.58;33.47;;;11.90;83.60;;;;;;5014803;28;20251;-72
2021/05/03 10:34:44;;;;;;;39.85;35.17;;;11.90;81.70;;;;;;5002941;28;20054;-72
2021/05/03 10:37:29;;;;;;;41.15;34.47;;;11.90;82.30;;;;;;4995945;28;20410;-72
2021/05/03 10:40:00;;;;;;;40.72;30.60;;;11.90;81.60;;;;;;4982894;28;20467;-72
2021/05/03 10:42:30;;;;;;;41.30;36.00;;;11.90;81.90;;;;;;4996797;28;20038;-73
2021/05/03 10:45:11;;;;;;;43.40;36.43;;;12.00;83.00;;;;;;4995186;28;20033;-72
2021/05/03 10:47:44;;;;;;;41.67;37.28;;;12.20;82.70;;;;;;4976757;28;20779;-72
2021/05/03 10:50:45;;;;;;;40.65;33.47;;;12.30;82.30;;;;;;4977040;28;20518;-72
2021/05/03 10:53:21;;;;;;;40.15;35.88;;;12.10;80.20;;;;;;4990451;28;20042;-72
2021/05/03 10:56:00;;;;;;;35.25;31.45;;;11.90;80.70;;;;;;4997134;28;20624;-72
2021/05/03 10:58:30;;;;;;;37.05;31.88;;;11.70;80.10;;;;;;4993001;28;20041;-72
2021/05/03 11:00:57;;;;;;;38.45;34.35;;;11.70;80.90;;;;;;5012236;28;20046;-72
2021/05/03 11:03:57;;;;;;;36.90;32.33;;;11.70;81.80;;;;;;4985028;28;20428;-72
2021/05/03 11:06:42;;;;;;;36.65;32.63;;;11.70;81.10;;;;;;4978442;28;20053;-72
2021/05/03 11:09:29;;;;;;;33.85;30.25;;;11.60;80.90;;;;;;4996915;28;20516;-72
2021/05/03 11:11:58;;;;;;;29.05;25.67;;;11.40;80.60;;;;;;4985656;28;20133;-72
2021/05/03 11:14:27;;;;;;;32.55;25.80;;;11.30;79.20;;;;;;4988400;28;20058;-72
2021/05/03 11:17:06;;;;;;;31.45;27.65;;;11.20;78.80;;;;;;4991226;28;20109;-72
2021/05/03 11:22:22;;;;;;;37.67;33.83;;;11.70;81.50;;;;;;5008400;28;20514;-72
2021/05/03 11:25:04;;;;;;;37.03;31.63;;;12.10;82.60;;;;;;5003832;28;20088;-73
2021/05/03 11:33:22;;;;;;;33.17;29.40;;;13.10;76.20;;;;;;4971250;28;20117;-71
2021/05/03 11:38:34;;;;;;;29.35;24.40;;;13.00;76.00;;;;;;4988334;28;20164;-72
2021/05/03 11:46:25;;;;;;;31.23;27.92;;;13.60;71.00;;;;;;5007166;28;20041;-72
2021/05/03 11:48:52;;;;;;;26.15;23.08;;;13.50;70.60;;;;;;4983105;28;20038;-73
2021/05/03 11:51:18;;;;;;;30.23;27.00;;;13.20;69.40;;;;;;5001284;28;20052;-73
2021/05/03 11:53:45;;;;;;;28.42;25.40;;;13.00;70.30;;;;;;4985107;28;20133;-73
2021/05/03 11:56:30;;;;;;;29.48;26.45;;;12.80;71.00;;;;;;5006992;28;20065;-73
2021/05/03 11:58:57;;;;;;;19.42;17.42;;;12.70;73.10;;;;;;4985546;28;20402;-74
2021/05/03 12:01:28;;;;;;;14.52;13.07;;;12.50;70.00;;;;;;5005456;28;20036;-72
2021/05/03 12:03:59;;;;;;;12.23;10.88;;;12.20;68.20;;;;;;5010732;28;20060;-72
2021/05/03 12:06:41;;;;;;;13.27;11.65;;;11.80;69.20;;;;;;5001062;28;20139;-74
2021/05/03 12:09:12;;;;;;;10.65;9.55;;;11.50;69.10;;;;;;5000348;28;20046;-71
2021/05/03 12:11:52;;;;;;;11.60;8.75;;;11.50;70.00;;;;;;5007993;28;20374;-71
2021/05/03 12:14:18;;;;;;;10.48;9.38;;;11.50;70.40;;;;;;4985353;28;20057;-71
2021/05/03 12:16:44;;;;;;;8.48;7.55;;;11.60;73.50;;;;;;4985864;28;20640;-71
2021/05/03 12:19:19;;;;;;;10.27;7.97;;;11.80;73.20;;;;;;4984433;28;20125;-71
2021/05/03 12:21:45;;;;;;;9.65;8.65;;;11.90;72.20;;;;;;5006900;28;20029;-71
2021/05/03 12:24:17;;;;;;;9.80;7.95;;;11.80;72.50;;;;;;5023545;28;20053;-72
2021/05/03 12:26:56;;;;;;;8.73;7.63;;;11.60;71.20;;;;;;5007584;28;20034;-71
2021/05/03 12:29:24;;;;;;;10.07;8.32;;;11.40;75.00;;;;;;5003563;28;20052;-72
2021/05/03 12:31:51;;;;;;;8.90;7.97;;;11.20;76.00;;;;;;5002186;28;20046;-72
2021/05/03 12:34:20;;;;;;;10.63;9.52;;;11.10;74.30;;;;;;5006282;28;20041;-72
2021/05/03 12:37:03;;;;;;;10.05;8.93;;;10.90;75.80;;;;;;4980437;28;20121;-72
2021/05/03 12:39:29;;;;;;;10.20;8.75;;;10.70;78.00;;;;;;5008020;28;20452;-71
2021/05/03 12:41:55;;;;;;;8.93;6.85;;;10.60;77.40;;;;;;5004045;28;20038;-71
2021/05/03 12:44:25;;;;;;;7.25;6.50;;;10.60;76.80;;;;;;5022833;28;20670;-72
2021/05/03 12:46:52;;;;;;;9.30;6.57;;;10.60;78.00;;;;;;4992738;28;20622;-71
2021/05/03 12:49:25;;;;;;;8.73;7.18;;;10.70;77.00;;;;;;4980958;28;20121;-72
2021/05/03 12:52:05;;;;;;;7.55;6.47;;;11.00;78.60;;;;;;4968342;28;20070;-72
2021/05/03 12:55:05;;;;;;;8.20;5.68;;;11.20;76.40;;;;;;4989799;28;20443;-72
2021/05/03 12:57:50;;;;;;;8.98;6.53;;;11.20;76.50;;;;;;5003155;28;21443;-73
2021/05/03 13:00:22;;;;;;;8.07;7.25;;;11.30;76.90;;;;;;5013658;28;20046;-72
2021/05/03 13:03:15;;;;;;;10.30;6.72;;;11.30;75.30;;;;;;4994428;28;20564;-72
2021/05/03 13:06:04;;;;;;;9.18;6.50;;;11.40;73.80;;;;;;4989708;28;20113;-73
2021/05/03 13:08:47;;;;;;;8.38;7.03;;;11.30;73.10;;;;;;4974382;28;20117;-72
2021/05/03 13:22:39;;;;;;;9.00;8.10;;;11.10;74.40;;;;;;5006229;28;20034;-71
2021/05/03 13:25:39;;;;;;;9.77;8.77;;;10.90;77.50;;;;;;4993892;28;20041;-71
2021/05/03 13:28:06;;;;;;;11.18;9.10;;;10.70;80.00;;;;;;5012067;28;20042;-73
2021/05/03 13:30:34;;;;;;;9.03;8.10;;;10.50;81.40;;;;;;4990645;28;20042;-72
2021/05/03 13:33:01;;;;;;;10.35;8.98;;;10.60;82.30;;;;;;5025173;28;20049;-72
2021/05/03 13:35:30;;;;;;;10.32;8.93;;;10.90;83.20;;;;;;5006457;28;20519;-73
2021/05/03 13:37:56;;;;;;;8.65;7.72;;;11.30;82.50;;;;;;5007887;28;20034;-73
2021/05/03 13:40:22;;;;;;;9.32;7.82;;;11.70;77.60;;;;;;5010289;28;20084;-73
2021/05/03 13:42:52;;;;;;;9.27;8.38;;;11.90;77.30;;;;;;5011048;28;20045;-73
2021/05/03 13:45:19;;;;;;;11.90;7.72;;;12.10;78.20;;;;;;4990004;28;20294;-73
2021/05/03 13:47:46;;;;;;;10.57;8.27;;;12.30;72.50;;;;;;5005416;28;20037;-74
2021/05/03 13:50:12;;;;;;;11.93;8.93;;;12.40;70.30;;;;;;4991714;28;20990;-73
2021/05/03 13:52:38;;;;;;;11.77;8.35;;;12.60;69.90;;;;;;5011703;28;20516;-73
2021/05/03 13:55:04;;;;;;;11.25;8.38;;;12.70;69.20;;;;;;5024399;28;20057;-74
2021/05/03 13:57:30;;;;;;;9.07;8.18;;;12.80;67.80;;;;;;5009932;28;20428;-74
2021/05/03 13:59:56;;;;;;;11.48;9.23;;;12.90;68.50;;;;;;4995743;28;20042;-74
2021/05/03 14:02:22;;;;;;;11.10;8.60;;;12.90;67.00;;;;;;4984401;28;20041;-74
2021/05/03 14:04:48;;;;;;;10.25;8.68;;;12.90;67.50;;;;;;4987511;28;20038;-73
2021/05/03 14:07:13;;;;;;;10.05;9.00;;;12.90;68.10;;;;;;4989137;28;20054;-73
2021/05/03 14:09:39;;;;;;;13.40;9.40;;;12.90;68.50;;;;;;4993565;28;20556;-73
2021/05/03 14:12:06;;;;;;;10.52;8.50;;;12.90;68.80;;;;;;4992531;28;20044;-73
2021/05/03 14:14:34;;;;;;;13.80;9.88;;;12.90;67.30;;;;;;5018931;28;20558;-73
2021/05/03 14:17:04;;;;;;;11.25;8.77;;;12.80;68.70;;;;;;5001208;28;20045;-71
2021/05/03 14:19:35;;;;;;;9.55;8.13;;;12.80;67.70;;;;;;5027243;28;20048;-72
2021/05/03 14:22:01;;;;;;;10.52;9.35;;;12.90;66.00;;;;;;5029500;28;20042;-72
2021/05/03 14:24:30;;;;;;;12.52;9.10;;;12.90;67.40;;;;;;5000411;28;20045;-71
2021/05/03 14:26:56;;;;;;;10.48;9.48;;;12.90;66.10;;;;;;4965213;28;20050;-71
2021/05/03 14:29:36;;;;;;;10.77;8.85;;;12.80;66.20;;;;;;5014528;28;20128;-72
2021/05/03 14:32:51;;;;;;;12.40;9.90;;;12.70;67.20;;;;;;5002093;28;20513;-72
2021/05/03 14:34:58;;;;;;;11.52;9.30;;;12.60;67.40;;;;;;5014135;28;20462;-72
2021/05/03 14:37:24;;;;;;;12.10;9.65;;;12.50;66.00;;;;;;5017494;28;20411;-71
2021/05/03 14:39:50;;;;;;;11.45;8.93;;;12.30;67.10;;;;;;5017595;28;20387;-73
2021/05/03 14:42:16;;;;;;;10.65;9.60;;;12.20;67.60;;;;;;5005601;28;20484;-72